sensor_id;sensor_type;location;lat;lon;timestamp;pressure;altitude;pressure_sealevel;temperature;humidity
6567;BME280;3317;43.994;22.878;2023-02-16T00:00:47;102437.63;;;6.43;56.32
6567;BME280;3317;43.994;22.878;2023-02-16T00:03:17;102440.41;;;6.41;56.20
6567;BME280;3317;43.994;22.878;2023-02-16T00:05:44;102445.88;;;6.40;56.05
6567;BME280;3317;43.994;22.878;2023-02-16T00:08:11;102438.81;;;6.37;55.73
6567;BME280;3317;43.994;22.878;2023-02-16T00:10:40;102447.00;;;6.36;55.87
6567;BME280;3317;43.994;22.878;2023-02-16T00:13:28;102432.31;;;6.25;56.42
6567;BME280;3317;43.994;22.878;2023-02-16T00:16:12;102436.56;;;6.29;55.94
6567;BME280;3317;43.994;22.878;2023-02-16T00:18:39;102433.09;;;6.27;56.00
6567;BME280;3317;43.994;22.878;2023-02-16T00:21:06;102437.53;;;6.28;56.18
6567;BME280;3317;43.994;22.878;2023-02-16T00:23:32;102432.22;;;6.27;56.16
6567;BME280;3317;43.994;22.878;2023-02-16T00:26:01;102438.53;;;6.26;56.31
6567;BME280;3317;43.994;22.878;2023-02-16T00:28:28;102429.78;;;6.22;55.90
6567;BME280;3317;43.994;22.878;2023-02-16T00:30:55;102431.66;;;6.20;56.09
6567;BME280;3317;43.994;22.878;2023-02-16T00:33:22;102430.03;;;6.17;56.36
6567;BME280;3317;43.994;22.878;2023-02-16T00:35:49;102435.31;;;6.19;56.67
6567;BME280;3317;43.994;22.878;2023-02-16T00:38:16;102436.19;;;6.19;56.46
6567;BME280;3317;43.994;22.878;2023-02-16T00:40:42;102440.88;;;6.16;55.85
6567;BME280;3317;43.994;22.878;2023-02-16T00:43:22;102437.41;;;6.14;56.46
6567;BME280;3317;43.994;22.878;2023-02-16T00:45:49;102439.31;;;6.12;56.35
6567;BME280;3317;43.994;22.878;2023-02-16T00:48:16;102430.34;;;6.11;56.34
6567;BME280;3317;43.994;22.878;2023-02-16T00:50:43;102437.56;;;6.11;56.21
6567;BME280;3317;43.994;22.878;2023-02-16T00:53:10;102437.72;;;6.08;56.48
6567;BME280;3317;43.994;22.878;2023-02-16T00:55:38;102438.59;;;6.08;56.73
6567;BME280;3317;43.994;22.878;2023-02-16T00:58:14;102434.25;;;6.05;56.46
6567;BME280;3317;43.994;22.878;2023-02-16T01:00:45;102432.50;;;6.04;56.32
6567;BME280;3317;43.994;22.878;2023-02-16T01:03:16;102407.34;;;5.88;55.52
6567;BME280;3317;43.994;22.878;2023-02-16T01:05:44;102431.72;;;6.02;55.45
6567;BME280;3317;43.994;22.878;2023-02-16T01:08:12;102429.03;;;6.02;55.72
6567;BME280;3317;43.994;22.878;2023-02-16T01:10:57;102430.00;;;6.01;55.79
6567;BME280;3317;43.994;22.878;2023-02-16T01:13:40;102430.91;;;6.00;55.68
6567;BME280;3317;43.994;22.878;2023-02-16T01:16:12;102422.13;;;5.97;55.57
6567;BME280;3317;43.994;22.878;2023-02-16T01:18:40;102429.34;;;5.96;55.66
6567;BME280;3317;43.994;22.878;2023-02-16T01:21:07;102413.50;;;5.90;55.69
6567;BME280;3317;43.994;22.878;2023-02-16T01:23:35;102416.81;;;5.95;55.91
6567;BME280;3317;43.994;22.878;2023-02-16T01:26:03;102416.03;;;5.93;55.50
6567;BME280;3317;43.994;22.878;2023-02-16T01:28:33;102415.16;;;5.92;55.79
6567;BME280;3317;43.994;22.878;2023-02-16T01:31:02;102400.53;;;5.81;55.62
6567;BME280;3317;43.994;22.878;2023-02-16T01:33:30;102413.50;;;5.90;55.60
6567;BME280;3317;43.994;22.878;2023-02-16T01:35:57;102414.53;;;5.87;55.35
6567;BME280;3317;43.994;22.878;2023-02-16T01:38:26;102417.31;;;5.86;55.37
6567;BME280;3317;43.994;22.878;2023-02-16T01:41:09;102414.63;;;5.86;55.58
6567;BME280;3317;43.994;22.878;2023-02-16T01:43:49;102419.22;;;5.84;55.89
6567;BME280;3317;43.994;22.878;2023-02-16T01:46:22;102415.72;;;5.82;55.57
6567;BME280;3317;43.994;22.878;2023-02-16T01:48:51;102375.19;;;5.51;55.36
6567;BME280;3317;43.994;22.878;2023-02-16T01:51:20;102413.63;;;5.71;55.78
6567;BME280;3317;43.994;22.878;2023-02-16T01:53:51;102427.78;;;5.74;55.59
6567;BME280;3317;43.994;22.878;2023-02-16T01:56:27;102416.22;;;5.72;55.77
6567;BME280;3317;43.994;22.878;2023-02-16T01:59:01;102419.00;;;5.71;56.25
6567;BME280;3317;43.994;22.878;2023-02-16T02:01:49;102420.00;;;5.68;56.18
6567;BME280;3317;43.994;22.878;2023-02-16T02:04:28;102427.41;;;5.64;56.22
6567;BME280;3317;43.994;22.878;2023-02-16T02:07:20;102373.38;;;5.34;56.54
6567;BME280;3317;43.994;22.878;2023-02-16T02:09:58;102408.16;;;5.55;56.10
6567;BME280;3317;43.994;22.878;2023-02-16T02:12:31;102421.47;;;5.58;56.60
6567;BME280;3317;43.994;22.878;2023-02-16T02:15:00;102426.91;;;5.56;56.51
6567;BME280;3317;43.994;22.878;2023-02-16T02:17:28;102420.81;;;5.53;56.33
6567;BME280;3317;43.994;22.878;2023-02-16T02:20:03;102417.19;;;5.54;56.52
6567;BME280;3317;43.994;22.878;2023-02-16T02:28:53;102420.44;;;5.43;56.62
6567;BME280;3317;43.994;22.878;2023-02-16T02:31:33;102405.31;;;5.40;56.74
6567;BME280;3317;43.994;22.878;2023-02-16T02:34:14;102406.59;;;5.33;56.84
6567;BME280;3317;43.994;22.878;2023-02-16T02:36:49;102412.59;;;5.38;56.77
6567;BME280;3317;43.994;22.878;2023-02-16T02:39:26;102404.59;;;5.36;57.66
6567;BME280;3317;43.994;22.878;2023-02-16T02:42:03;102403.91;;;5.33;57.81
6567;BME280;3317;43.994;22.878;2023-02-16T02:44:36;102404.03;;;5.30;58.11
6567;BME280;3317;43.994;22.878;2023-02-16T02:47:03;102406.91;;;5.27;57.67
6567;BME280;3317;43.994;22.878;2023-02-16T02:49:30;102394.72;;;5.19;57.10
6567;BME280;3317;43.994;22.878;2023-02-16T02:51:58;102405.31;;;5.22;57.52
6567;BME280;3317;43.994;22.878;2023-02-16T02:54:27;102399.28;;;5.17;58.86
6567;BME280;3317;43.994;22.878;2023-02-16T02:57:14;102403.09;;;5.13;59.56
6567;BME280;3317;43.994;22.878;2023-02-16T03:00:05;102405.22;;;5.06;59.96
6567;BME280;3317;43.994;22.878;2023-02-16T03:02:52;102405.28;;;5.05;60.09
6567;BME280;3317;43.994;22.878;2023-02-16T03:05:22;102397.84;;;4.92;59.38
6567;BME280;3317;43.994;22.878;2023-02-16T03:07:53;102406.22;;;5.04;59.42
6567;BME280;3317;43.994;22.878;2023-02-16T03:10:32;102405.44;;;5.02;58.92
6567;BME280;3317;43.994;22.878;2023-02-16T03:13:20;102403.69;;;5.01;58.21
6567;BME280;3317;43.994;22.878;2023-02-16T03:15:50;102403.84;;;4.98;58.36
6567;BME280;3317;43.994;22.878;2023-02-16T03:18:23;102388.03;;;4.91;58.39
6567;BME280;3317;43.994;22.878;2023-02-16T03:21:10;102401.31;;;4.95;59.58
6567;BME280;3317;43.994;22.878;2023-02-16T03:23:57;102400.75;;;4.88;60.56
6567;BME280;3317;43.994;22.878;2023-02-16T03:26:43;102388.94;;;4.73;61.13
6567;BME280;3317;43.994;22.878;2023-02-16T03:29:28;102401.16;;;4.80;60.58
6567;BME280;3317;43.994;22.878;2023-02-16T03:31:56;102392.34;;;4.76;60.48
6567;BME280;3317;43.994;22.878;2023-02-16T03:34:24;102397.78;;;4.75;60.90
6567;BME280;3317;43.994;22.878;2023-02-16T03:36:54;102393.38;;;4.74;61.42
6567;BME280;3317;43.994;22.878;2023-02-16T03:39:25;102360.44;;;4.51;61.50
6567;BME280;3317;43.994;22.878;2023-02-16T03:41:55;102397.38;;;4.65;61.62
6567;BME280;3317;43.994;22.878;2023-02-16T03:44:23;102377.72;;;4.45;62.01
6567;BME280;3317;43.994;22.878;2023-02-16T03:46:50;102383.97;;;4.46;62.46
6567;BME280;3317;43.994;22.878;2023-02-16T03:49:19;102374.97;;;4.28;62.89
6567;BME280;3317;43.994;22.878;2023-02-16T03:51:46;102398.91;;;4.32;63.17
6567;BME280;3317;43.994;22.878;2023-02-16T03:54:13;102386.50;;;4.30;63.31
6567;BME280;3317;43.994;22.878;2023-02-16T03:56:40;102400.81;;;4.30;63.02
6567;BME280;3317;43.994;22.878;2023-02-16T03:59:07;102403.50;;;4.30;62.15
6567;BME280;3317;43.994;22.878;2023-02-16T04:01:34;102406.09;;;4.32;61.50
6567;BME280;3317;43.994;22.878;2023-02-16T04:04:01;102390.34;;;4.24;61.43
6567;BME280;3317;43.994;22.878;2023-02-16T04:06:29;102406.97;;;4.32;60.85
6567;BME280;3317;43.994;22.878;2023-02-16T04:08:56;102412.28;;;4.34;60.13
6567;BME280;3317;43.994;22.878;2023-02-16T04:11:23;102415.81;;;4.34;59.98
6567;BME280;3317;43.994;22.878;2023-02-16T04:14:07;102413.13;;;4.34;60.31
6567;BME280;3317;43.994;22.878;2023-02-16T04:16:34;102408.66;;;4.35;60.05
6567;BME280;3317;43.994;22.878;2023-02-16T04:19:01;102415.81;;;4.34;59.74
6567;BME280;3317;43.994;22.878;2023-02-16T04:21:29;102408.66;;;4.35;59.17
6567;BME280;3317;43.994;22.878;2023-02-16T04:23:56;102408.56;;;4.36;58.89
6567;BME280;3317;43.994;22.878;2023-02-16T04:26:23;102414.81;;;4.37;59.11
6567;BME280;3317;43.994;22.878;2023-02-16T04:28:50;102410.44;;;4.34;58.95
6567;BME280;3317;43.994;22.878;2023-02-16T04:31:16;102410.44;;;4.34;58.30
6567;BME280;3317;43.994;22.878;2023-02-16T04:33:43;102414.06;;;4.33;58.59
6567;BME280;3317;43.994;22.878;2023-02-16T04:36:10;102414.06;;;4.33;58.96
6567;BME280;3317;43.994;22.878;2023-02-16T04:38:38;102392.38;;;4.19;60.04
6567;BME280;3317;43.994;22.878;2023-02-16T04:41:05;102415.22;;;4.28;59.96
6567;BME280;3317;43.994;22.878;2023-02-16T04:43:32;102413.75;;;4.20;60.94
6567;BME280;3317;43.994;22.878;2023-02-16T04:46:00;102417.28;;;4.22;60.50
6567;BME280;3317;43.994;22.878;2023-02-16T04:48:26;102416.53;;;4.19;59.44
6567;BME280;3317;43.994;22.878;2023-02-16T04:50:53;102371.31;;;3.90;58.81
6567;BME280;3317;43.994;22.878;2023-02-16T04:53:20;102415.00;;;4.13;58.60
6567;BME280;3317;43.994;22.878;2023-02-16T04:55:49;102420.31;;;4.15;58.78
6567;BME280;3317;43.994;22.878;2023-02-16T04:58:16;102419.56;;;4.11;60.73
6567;BME280;3317;43.994;22.878;2023-02-16T05:00:43;102422.59;;;4.03;61.11
6567;BME280;3317;43.994;22.878;2023-02-16T05:03:10;102422.72;;;4.00;61.94
6567;BME280;3317;43.994;22.878;2023-02-16T05:05:37;102420.19;;;3.97;62.31
6567;BME280;3317;43.994;22.878;2023-02-16T05:08:05;102416.84;;;3.92;63.18
6567;BME280;3317;43.994;22.878;2023-02-16T05:10:31;102418.00;;;3.86;63.49
6567;BME280;3317;43.994;22.878;2023-02-16T05:13:00;102422.22;;;3.71;64.34
6567;BME280;3317;43.994;22.878;2023-02-16T05:15:44;102420.06;;;3.59;65.44
6567;BME280;3317;43.994;22.878;2023-02-16T05:18:11;102417.91;;;3.46;66.19
6567;BME280;3317;43.994;22.878;2023-02-16T05:20:38;102415.53;;;3.40;66.55
6567;BME280;3317;43.994;22.878;2023-02-16T05:23:22;102421.06;;;3.35;66.68
6567;BME280;3317;43.994;22.878;2023-02-16T05:25:49;102426.56;;;3.32;67.07
6567;BME280;3317;43.994;22.878;2023-02-16T05:28:17;102425.69;;;3.32;67.13
6567;BME280;3317;43.994;22.878;2023-02-16T05:30:44;102427.63;;;3.28;67.38
6567;BME280;3317;43.994;22.878;2023-02-16T05:33:11;102431.97;;;3.31;67.37
6567;BME280;3317;43.994;22.878;2023-02-16T05:35:38;102431.03;;;3.32;67.61
6567;BME280;3317;43.994;22.878;2023-02-16T05:38:05;102435.53;;;3.31;67.54
6567;BME280;3317;43.994;22.878;2023-02-16T05:40:32;102440.91;;;3.31;67.54
6567;BME280;3317;43.994;22.878;2023-02-16T05:42:58;102435.59;;;3.30;67.35
6567;BME280;3317;43.994;22.878;2023-02-16T05:45:27;102438.28;;;3.30;67.83
6567;BME280;3317;43.994;22.878;2023-02-16T05:47:54;102439.22;;;3.29;67.93
6567;BME280;3317;43.994;22.878;2023-02-16T05:50:21;102440.97;;;3.30;67.95
6567;BME280;3317;43.994;22.878;2023-02-16T05:52:48;102445.38;;;3.31;68.11
6567;BME280;3317;43.994;22.878;2023-02-16T05:55:15;102447.13;;;3.32;67.99
6567;BME280;3317;43.994;22.878;2023-02-16T05:57:42;102450.59;;;3.34;67.88
6567;BME280;3317;43.994;22.878;2023-02-16T06:00:10;102446.03;;;3.36;67.91
6567;BME280;3317;43.994;22.878;2023-02-16T06:02:40;102441.63;;;3.35;67.81
6567;BME280;3317;43.994;22.878;2023-02-16T06:05:07;102459.22;;;3.42;68.09
6567;BME280;3317;43.994;22.878;2023-02-16T06:07:34;102450.97;;;3.47;67.58
6567;BME280;3317;43.994;22.878;2023-02-16T06:10:01;102454.47;;;3.49;67.12
6567;BME280;3317;43.994;22.878;2023-02-16T06:12:29;102454.31;;;3.52;67.01
6567;BME280;3317;43.994;22.878;2023-02-16T06:14:56;102457.75;;;3.56;67.52
6567;BME280;3317;43.994;22.878;2023-02-16T06:17:24;102446.38;;;3.50;66.32
6567;BME280;3317;43.994;22.878;2023-02-16T06:19:52;102467.34;;;3.61;67.10
6567;BME280;3317;43.994;22.878;2023-02-16T06:22:19;102456.56;;;3.63;67.90
6567;BME280;3317;43.994;22.878;2023-02-16T06:24:46;102467.16;;;3.66;67.82
6567;BME280;3317;43.994;22.878;2023-02-16T06:27:13;102466.88;;;3.72;67.14
6567;BME280;3317;43.994;22.878;2023-02-16T06:29:40;102466.72;;;3.75;67.34
6567;BME280;3317;43.994;22.878;2023-02-16T06:32:07;102468.50;;;3.76;67.37
6567;BME280;3317;43.994;22.878;2023-02-16T06:34:34;102476.41;;;3.79;67.78
6567;BME280;3317;43.994;22.878;2023-02-16T06:37:02;102469.16;;;3.82;67.68
6567;BME280;3317;43.994;22.878;2023-02-16T06:39:29;102476.22;;;3.84;67.54
6567;BME280;3317;43.994;22.878;2023-02-16T06:41:56;102431.81;;;3.56;67.39
6567;BME280;3317;43.994;22.878;2023-02-16T06:44:23;102481.28;;;3.90;67.20
6567;BME280;3317;43.994;22.878;2023-02-16T06:46:50;102484.72;;;3.94;67.44
6567;BME280;3317;43.994;22.878;2023-02-16T06:49:18;102486.47;;;3.95;67.40
6567;BME280;3317;43.994;22.878;2023-02-16T06:51:45;102473.31;;;3.89;67.20
6567;BME280;3317;43.994;22.878;2023-02-16T06:54:14;102484.84;;;4.12;68.38
6567;BME280;3317;43.994;22.878;2023-02-16T06:56:41;102481.75;;;4.21;67.21
6567;BME280;3317;43.994;22.878;2023-02-16T06:59:10;102483.06;;;4.31;66.82
6567;BME280;3317;43.994;22.878;2023-02-16T07:01:37;102474.50;;;4.42;67.22
6567;BME280;3317;43.994;22.878;2023-02-16T07:04:04;102484.28;;;4.64;71.46
6567;BME280;3317;43.994;22.878;2023-02-16T07:06:34;102479.38;;;4.72;70.75
6567;BME280;3317;43.994;22.878;2023-02-16T07:09:02;102468.63;;;4.72;68.98
6567;BME280;3317;43.994;22.878;2023-02-16T07:11:30;102475.78;;;4.92;67.35
6567;BME280;3317;43.994;22.878;2023-02-16T07:13:57;102467.41;;;4.99;67.02
6567;BME280;3317;43.994;22.878;2023-02-16T07:16:24;102475.16;;;5.05;69.70
6567;BME280;3317;43.994;22.878;2023-02-16T07:18:51;102474.19;;;5.25;71.56
6567;BME280;3317;43.994;22.878;2023-02-16T07:21:18;102462.41;;;5.28;71.10
6567;BME280;3317;43.994;22.878;2023-02-16T07:23:44;102468.91;;;5.41;68.88
6567;BME280;3317;43.994;22.878;2023-02-16T07:26:11;102474.78;;;5.49;67.04
6567;BME280;3317;43.994;22.878;2023-02-16T07:28:40;102468.16;;;5.57;67.56
6567;BME280;3317;43.994;22.878;2023-02-16T07:31:08;102468.44;;;5.68;66.64
6567;BME280;3317;43.994;22.878;2023-02-16T07:33:35;102465.94;;;5.83;66.87
6567;BME280;3317;43.994;22.878;2023-02-16T07:36:03;102477.72;;;5.80;65.17
6567;BME280;3317;43.994;22.878;2023-02-16T07:38:31;102465.22;;;5.79;63.93
6567;BME280;3317;43.994;22.878;2023-02-16T07:41:15;102465.63;;;5.71;63.68
6567;BME280;3317;43.994;22.878;2023-02-16T07:43:44;102478.41;;;5.66;64.12
6567;BME280;3317;43.994;22.878;2023-02-16T07:46:11;102470.34;;;5.66;63.90
6567;BME280;3317;43.994;22.878;2023-02-16T07:48:37;102455.81;;;5.70;64.02
6567;BME280;3317;43.994;22.878;2023-02-16T07:51:04;102464.47;;;5.93;64.22
6567;BME280;3317;43.994;22.878;2023-02-16T07:53:31;102460.84;;;6.12;64.88
6567;BME280;3317;43.994;22.878;2023-02-16T07:55:58;102459.34;;;6.06;63.68
6567;BME280;3317;43.994;22.878;2023-02-16T07:58:25;102464.50;;;6.11;63.53
6567;BME280;3317;43.994;22.878;2023-02-16T08:01:05;102460.13;;;6.08;63.08
6567;BME280;3317;43.994;22.878;2023-02-16T08:03:32;102462.47;;;6.14;62.99
6567;BME280;3317;43.994;22.878;2023-02-16T08:05:59;102460.97;;;6.26;63.36
6567;BME280;3317;43.994;22.878;2023-02-16T08:08:26;102451.28;;;6.40;63.34
6567;BME280;3317;43.994;22.878;2023-02-16T08:10:53;102455.38;;;6.63;63.36
6567;BME280;3317;43.994;22.878;2023-02-16T08:13:20;102463.09;;;6.85;64.60
6567;BME280;3317;43.994;22.878;2023-02-16T08:15:47;102457.66;;;7.03;63.89
6567;BME280;3317;43.994;22.878;2023-02-16T08:18:16;102460.03;;;7.24;63.93
6567;BME280;3317;43.994;22.878;2023-02-16T08:20:43;102464.72;;;7.36;62.29
6567;BME280;3317;43.994;22.878;2023-02-16T08:23:10;102463.66;;;7.39;60.96
6567;BME280;3317;43.994;22.878;2023-02-16T08:25:36;102457.03;;;7.44;60.33
6567;BME280;3317;43.994;22.878;2023-02-16T08:28:04;102444.59;;;7.42;60.17
6567;BME280;3317;43.994;22.878;2023-02-16T08:30:32;102461.28;;;7.49;60.15
6567;BME280;3317;43.994;22.878;2023-02-16T08:32:59;102460.78;;;7.42;59.40
6567;BME280;3317;43.994;22.878;2023-02-16T08:35:27;102463.22;;;7.46;59.79
6567;BME280;3317;43.994;22.878;2023-02-16T08:37:57;102472.13;;;7.32;59.85
6567;BME280;3317;43.994;22.878;2023-02-16T08:40:24;102462.34;;;7.15;60.30
6567;BME280;3317;43.994;22.878;2023-02-16T08:42:51;102465.28;;;7.11;60.85
6567;BME280;3317;43.994;22.878;2023-02-16T08:45:18;102473.38;;;7.11;60.98
6567;BME280;3317;43.994;22.878;2023-02-16T08:47:46;102467.53;;;7.18;61.20
6567;BME280;3317;43.994;22.878;2023-02-16T08:50:13;102470.22;;;7.18;61.13
6567;BME280;3317;43.994;22.878;2023-02-16T08:52:42;102468.13;;;7.24;60.77
6567;BME280;3317;43.994;22.878;2023-02-16T08:55:10;102464.13;;;7.31;60.52
6567;BME280;3317;43.994;22.878;2023-02-16T08:57:38;102472.13;;;7.32;60.53
6567;BME280;3317;43.994;22.878;2023-02-16T09:00:06;102472.47;;;7.42;61.23
6567;BME280;3317;43.994;22.878;2023-02-16T09:02:50;102458.06;;;7.58;60.40
6567;BME280;3317;43.994;22.878;2023-02-16T09:05:17;102458.31;;;7.84;60.85
6567;BME280;3317;43.994;22.878;2023-02-16T09:07:45;102469.34;;;8.10;60.43
6567;BME280;3317;43.994;22.878;2023-02-16T09:10:13;102453.34;;;8.21;59.29
6567;BME280;3317;43.994;22.878;2023-02-16T09:12:40;102465.50;;;8.43;58.67
6567;BME280;3317;43.994;22.878;2023-02-16T09:15:08;102449.09;;;8.46;58.19
6567;BME280;3317;43.994;22.878;2023-02-16T09:17:35;102465.22;;;8.62;57.67
6567;BME280;3317;43.994;22.878;2023-02-16T09:20:03;102461.06;;;8.71;57.65
6567;BME280;3317;43.994;22.878;2023-02-16T09:22:30;102462.34;;;8.93;57.81
6567;BME280;3317;43.994;22.878;2023-02-16T09:24:59;102457.03;;;9.19;59.45
6567;BME280;3317;43.994;22.878;2023-02-16T09:27:26;102463.06;;;9.37;57.01
6567;BME280;3317;43.994;22.878;2023-02-16T09:29:53;102459.78;;;9.59;56.84
6567;BME280;3317;43.994;22.878;2023-02-16T09:32:20;102460.97;;;9.68;55.32
6567;BME280;3317;43.994;22.878;2023-02-16T09:34:47;102462.19;;;9.77;54.80
6567;BME280;3317;43.994;22.878;2023-02-16T09:37:15;102423.94;;;9.68;55.11
6567;BME280;3317;43.994;22.878;2023-02-16T09:39:42;102468.59;;;10.02;53.97
6567;BME280;3317;43.994;22.878;2023-02-16T09:42:19;102460.69;;;9.98;53.74
6567;BME280;3317;43.994;22.878;2023-02-16T09:44:57;102456.78;;;10.03;53.91
6567;BME280;3317;43.994;22.878;2023-02-16T09:47:29;102450.94;;;10.22;54.49
6567;BME280;3317;43.994;22.878;2023-02-16T09:49:58;102410.31;;;9.96;53.30
6567;BME280;3317;43.994;22.878;2023-02-16T09:52:32;102448.44;;;10.06;53.38
6567;BME280;3317;43.994;22.878;2023-02-16T09:55:01;102441.06;;;10.08;53.64
6567;BME280;3317;43.994;22.878;2023-02-16T09:57:42;102441.41;;;10.16;54.29
6567;BME280;3317;43.994;22.878;2023-02-16T10:00:20;102440.53;;;10.41;54.76
6567;BME280;3317;43.994;22.878;2023-02-16T10:02:52;102433.69;;;10.62;53.45
6567;BME280;3317;43.994;22.878;2023-02-16T10:05:27;102424.28;;;10.79;53.35
6567;BME280;3317;43.994;22.878;2023-02-16T10:08:00;102429.81;;;10.77;52.28
6567;BME280;3317;43.994;22.878;2023-02-16T10:10:42;102419.03;;;10.89;52.38
6567;BME280;3317;43.994;22.878;2023-02-16T10:13:21;102432.25;;;11.18;52.38
6567;BME280;3317;43.994;22.878;2023-02-16T10:15:52;102419.53;;;11.43;53.45
6567;BME280;3317;43.994;22.878;2023-02-16T10:18:24;102415.13;;;11.53;51.12
6567;BME280;3317;43.994;22.878;2023-02-16T10:20:54;102419.72;;;11.64;51.20
6567;BME280;3317;43.994;22.878;2023-02-16T10:23:43;102412.72;;;11.84;51.13
6567;BME280;3317;43.994;22.878;2023-02-16T10:26:18;102404.31;;;11.98;50.30
6567;BME280;3317;43.994;22.878;2023-02-16T10:28:52;102408.16;;;11.96;49.93
6567;BME280;3317;43.994;22.878;2023-02-16T10:31:23;102407.41;;;11.94;49.57
6567;BME280;3317;43.994;22.878;2023-02-16T10:37:02;102397.06;;;12.10;49.43
6567;BME280;3317;43.994;22.878;2023-02-16T10:39:37;102394.59;;;12.19;49.12
6567;BME280;3317;43.994;22.878;2023-02-16T10:42:26;102399.66;;;12.35;49.36
6567;BME280;3317;43.994;22.878;2023-02-16T10:45:00;102399.66;;;12.35;48.51
6567;BME280;3317;43.994;22.878;2023-02-16T10:47:34;102380.13;;;12.30;48.08
6567;BME280;3317;43.994;22.878;2023-02-16T10:50:02;102388.78;;;12.35;49.09
6567;BME280;3317;43.994;22.878;2023-02-16T10:52:33;102374.94;;;12.27;48.57
6567;BME280;3317;43.994;22.878;2023-02-16T10:55:01;102373.09;;;12.38;49.80
6567;BME280;3317;43.994;22.878;2023-02-16T10:57:30;102369.03;;;12.33;48.77
6567;BME280;3317;43.994;22.878;2023-02-16T11:00:01;102376.19;;;12.45;49.89
6567;BME280;3317;43.994;22.878;2023-02-16T11:02:35;102363.06;;;12.50;48.38
6567;BME280;3317;43.994;22.878;2023-02-16T11:05:33;102362.31;;;12.60;48.57
6567;BME280;3317;43.994;22.878;2023-02-16T11:08:01;102351.44;;;12.60;47.99
6567;BME280;3317;43.994;22.878;2023-02-16T11:10:38;102356.84;;;12.71;48.67
6567;BME280;3317;43.994;22.878;2023-02-16T11:13:09;102353.56;;;12.89;49.24
6567;BME280;3317;43.994;22.878;2023-02-16T11:15:50;102350.19;;;12.96;48.82
6567;BME280;3317;43.994;22.878;2023-02-16T11:18:34;102341.63;;;13.22;49.38
6567;BME280;3317;43.994;22.878;2023-02-16T11:21:04;102330.53;;;13.47;48.46
6567;BME280;3317;43.994;22.878;2023-02-16T11:23:33;102331.91;;;13.62;46.51
6567;BME280;3317;43.994;22.878;2023-02-16T11:26:02;102335.00;;;13.79;46.95
6567;BME280;3317;43.994;22.878;2023-02-16T11:28:32;102329.44;;;13.90;46.29
6567;BME280;3317;43.994;22.878;2023-02-16T11:31:18;102321.47;;;13.99;45.43
6567;BME280;3317;43.994;22.878;2023-02-16T11:33:55;102322.56;;;13.86;43.22
6567;BME280;3317;43.994;22.878;2023-02-16T11:36:28;102318.31;;;13.72;44.11
6567;BME280;3317;43.994;22.878;2023-02-16T11:38:59;102312.56;;;13.65;44.11
6567;BME280;3317;43.994;22.878;2023-02-16T11:41:28;102301.38;;;13.69;46.34
6567;BME280;3317;43.994;22.878;2023-02-16T11:43:58;102310.81;;;13.96;46.84
6567;BME280;3317;43.994;22.878;2023-02-16T11:46:25;102303.31;;;14.19;46.40
6567;BME280;3317;43.994;22.878;2023-02-16T11:48:52;102298.56;;;14.31;45.61
6567;BME280;3317;43.994;22.878;2023-02-16T11:51:33;102285.69;;;14.53;45.08
6567;BME280;3317;43.994;22.878;2023-02-16T11:54:04;102294.44;;;14.46;42.22
6567;BME280;3317;43.994;22.878;2023-02-16T11:56:33;102288.25;;;14.34;42.99
6567;BME280;3317;43.994;22.878;2023-02-16T11:59:06;102281.50;;;14.19;42.54
6567;BME280;3317;43.994;22.878;2023-02-16T12:01:45;102281.25;;;13.91;42.81
6567;BME280;3317;43.994;22.878;2023-02-16T12:04:25;102279.50;;;13.80;43.40
6567;BME280;3317;43.994;22.878;2023-02-16T12:07:06;102277.78;;;13.79;43.82
6567;BME280;3317;43.994;22.878;2023-02-16T12:09:46;102269.00;;;13.75;43.74
6567;BME280;3317;43.994;22.878;2023-02-16T12:12:17;102271.59;;;13.77;44.39
6567;BME280;3317;43.994;22.878;2023-02-16T12:14:56;102260.59;;;13.57;43.25
6567;BME280;3317;43.994;22.878;2023-02-16T12:17:41;102263.41;;;13.46;44.16
6567;BME280;3317;43.994;22.878;2023-02-16T12:20:21;102257.44;;;13.52;44.34
6567;BME280;3317;43.994;22.878;2023-02-16T12:22:58;102249.16;;;13.54;44.34
6567;BME280;3317;43.994;22.878;2023-02-16T12:25:33;102241.41;;;13.59;44.54
6567;BME280;3317;43.994;22.878;2023-02-16T12:28:10;102238.13;;;13.65;44.78
6567;BME280;3317;43.994;22.878;2023-02-16T12:30:50;102232.84;;;13.73;44.53
6567;BME280;3317;43.994;22.878;2023-02-16T12:33:36;102227.59;;;13.82;44.57
6567;BME280;3317;43.994;22.878;2023-02-16T12:36:31;102228.63;;;13.90;44.27
6567;BME280;3317;43.994;22.878;2023-02-16T12:39:04;102224.88;;;13.91;43.89
6567;BME280;3317;43.994;22.878;2023-02-16T12:41:45;102222.16;;;13.91;44.23
6567;BME280;3317;43.994;22.878;2023-02-16T12:44:17;102218.56;;;13.91;43.91
6567;BME280;3317;43.994;22.878;2023-02-16T12:46:48;102209.66;;;13.89;42.44
6567;BME280;3317;43.994;22.878;2023-02-16T12:49:23;102207.22;;;13.76;42.70
6567;BME280;3317;43.994;22.878;2023-02-16T12:51:54;102207.84;;;13.58;43.36
6567;BME280;3317;43.994;22.878;2023-02-16T12:54:27;102199.06;;;13.45;43.43
6567;BME280;3317;43.994;22.878;2023-02-16T12:56:59;102198.94;;;13.46;43.97
6567;BME280;3317;43.994;22.878;2023-02-16T12:59:34;102193.13;;;13.40;44.69
6567;BME280;3317;43.994;22.878;2023-02-16T13:02:13;102190.50;;;13.28;44.40
6567;BME280;3317;43.994;22.878;2023-02-16T13:04:45;102196.59;;;13.10;44.05
6567;BME280;3317;43.994;22.878;2023-02-16T13:07:19;102191.09;;;12.79;44.78
6567;BME280;3317;43.994;22.878;2023-02-16T13:09:57;102185.66;;;12.58;45.52
6567;BME280;3317;43.994;22.878;2023-02-16T13:12:31;102185.31;;;12.51;46.37
6567;BME280;3317;43.994;22.878;2023-02-16T13:15:10;102180.59;;;12.53;46.58
6567;BME280;3317;43.994;22.878;2023-02-16T13:17:41;102173.91;;;12.58;46.98
6567;BME280;3317;43.994;22.878;2023-02-16T13:20:12;102172.59;;;12.52;46.63
6567;BME280;3317;43.994;22.878;2023-02-16T13:22:54;102171.19;;;12.58;47.13
6567;BME280;3317;43.994;22.878;2023-02-16T13:26:08;102169.47;;;12.57;47.29
6567;BME280;3317;43.994;22.878;2023-02-16T13:28:58;102170.88;;;12.51;47.36
6567;BME280;3317;43.994;22.878;2023-02-16T13:31:38;102163.38;;;12.43;47.41
6567;BME280;3317;43.994;22.878;2023-02-16T13:34:25;102156.19;;;12.42;47.52
6567;BME280;3317;43.994;22.878;2023-02-16T13:37:16;102113.59;;;12.10;47.63
6567;BME280;3317;43.994;22.878;2023-02-16T13:43:16;102153.63;;;12.08;47.98